Fort Pierce, FL

03:55 EDT le 19 avril 2015 (GMT -0400)
Kirchman South | | Change Station
CLOSE
Current Station
Stations météorologiques personnelles
Location: Ft. Pierce, FL
Altitude: 18 ft
Stations météo à proximité

Alt. 18 ft 27.46 °N, 80.49 °W | Updated 5 minutes ago

Ciel dégagé
Ciel dégagé
70.2 ° F
Paraît 70.2 ° F
N
0.0
Vent Variable Vent de Sud
Gusts 14.0 mph

Aujourd'hui
Haut(e) -- | Bas -- ° F
--% Risque de précip.
Hier
Haut(e) -- | Bas -- ° F
Precip. -- pouce
6:53 AM 7:48 PM
Nouvelle lune, 0% visible
Pression 29.93 pouce
Visibilité 4.0 Miles terrestres
Nuages Ciel dégagé
Point de rosée 69 ° F
Humidité 96%
Précipitations 0.00 pouce
Profondeur de la couche neigeuse Non disponible.
UV 0.0 sur 12
Pollen 5.30 sur 12
Qualité de l'air Non disponible.
Flu Activity Local Activity
METAR KFPR 190653Z AUTO 00000KT 4SM CLR 21/21 A2993 RMK AO2 SLP135 T02110206

More Conditions Fewer Conditions

Pression 29.93 pouce
Visibilité 4.0 Miles terrestres
Nuages Ciel dégagé
Point de rosée 69 ° F
Humidité 96%
Précipitations 0.00 pouce
Profondeur de la couche neigeuse Non disponible.
UV 0.0 sur 12
Pollen 5.30 sur 12
Qualité de l'air Non disponible.
Flu Activity Local Activity
METAR KFPR 190653Z AUTO 00000KT 4SM CLR 21/21 A2993 RMK AO2 SLP135 T02110206

More Conditions Fewer Conditions

10-Day Weather Forecast

Almanac

Astronomie

Apr. 19, 2015 Lever Coucher
Temps réel
Crépuscule civil
Crépuscule nautique
Crépuscule astronomique
Lune
Durée de lumière visible
Longueur du jour
Tomorrow will be .
, % of the Moon is Illuminated

Extrêmes aujourd'hui

State Highs State Lows

Community

WunderPhotos

Upload Photos

1,814,723 Photos téléchargées !

WunderBlogs® & News

Nearby

Qualité de l'air

  Qualité de l'air Indice de la qualité de l'air Polluant
Not available.

Épaisseur de neige

Station Depth Altitude

Activité sismique

Ville Distance Mag. Time & Date
Minimum magnitude displayed is 2.5.

Températures des eaux côtières

Lieu Température

Stations

Stations météo à proximité

Emplacement de la station Température Refroidissement éolien Point de rosée Humidité Vent Precip. Alt. Mise à jour Type